Pagrindinis puslapis
METAR-TAF:

METAR-TAF

Oro uostai :

Middleton Island, Aliaska, Jungtinės Amerikos Valstijos

platuma: 59-26N, ilguma: 146-18W, Aukštis: 27 m

Dabartinis oras

Ataskaita buvo paskelbta 10 minutes, ne 21:51 UTC
Vėjas 7 kt iš Pietvakarių
Temperatūra 12°C
Drėgmė 82%
Slėgis 993 hPa
Matomumas: 16.1 km
Išsisklaidę debesys ne aukštis 2300 ft

METAR: PAMD 212151Z AUTO 23007KT 10SM SCT023 12/09 A2931 RMK AO2 SLP916 P0001 T01220089

Laikas: 14:01 (22:01 UTC)


TAF: trūkstamas

Orai ataskaitas ir orų prognozės (METAR, TAF).

turimą stotys yra geltonos ir raudonos taškus žemėlapyje.

Perkelti pele per norėdami pamatyti stoties vardą.

Tada spustelėkite, norėdami matyti oro stebėjimo ir prognozės.

Norėdami pakeisti žemėlapį: spustelėkite ant žalios mygtukų su juodo kryžiaus žemyn,; žalią mygtuką su brūkšneliu, jei norite nutolinti; arba žalių rodyklių gretimoms žemėlapius.


METAR-TAF: